Time;durP1;ratioP1;P1;durP2;ratioP2;P2;SDS_P1;SDS_P2;PMS_P1;PMS_P2;Temp;Humidity;BMP_temperature;BMP_pressure;BME280_temperature;BME280_humidity;BME280_pressure;Samples;Min_cycle;Max_cycle;Signal;HPM_P1;HPM_P2
2023/06/20 00:02:01;;;;;;;7.18;1.60;;;;;;;21.99;67.05;100589.94;7359962;19;20600;-63
2023/06/20 00:04:28;;;;;;;10.38;1.90;;;;;;;21.98;67.41;100591.03;7362905;19;20010;-63
2023/06/20 00:06:55;;;;;;;4.93;1.48;;;;;;;21.98;66.94;100587.53;7365840;19;20014;-63
2023/06/20 00:09:22;;;;;;;5.63;1.83;;;;;;;21.96;67.04;100578.91;7366639;19;20151;-63
2023/06/20 00:11:49;;;;;;;5.57;1.10;;;;;;;21.95;67.13;100582.63;7367081;19;21028;-62
2023/06/20 00:14:16;;;;;;;3.88;1.20;;;;;;;21.93;66.60;100572.13;7368191;19;20093;-64
2023/06/20 00:16:50;;;;;;;6.07;0.90;;;;;;;21.93;65.83;100572.13;7367564;19;20166;-64
2023/06/20 00:19:17;;;;;;;4.22;1.05;;;;;;;21.89;64.76;100578.97;7362382;19;20101;-63
2023/06/20 00:21:44;;;;;;;5.03;1.05;;;;;;;21.88;64.98;100579.22;7364561;19;20530;-64
2023/06/20 00:24:12;;;;;;;4.93;1.13;;;;;;;21.86;64.46;100568.72;7364186;19;20022;-64
2023/06/20 00:26:39;;;;;;;3.72;1.10;;;;;;;21.86;64.36;100567.91;7369974;19;20049;-64
2023/06/20 00:29:06;;;;;;;4.90;1.52;;;;;;;21.85;64.55;100560.91;7367375;19;20015;-65
2023/06/20 00:31:33;;;;;;;2.35;0.82;;;;;;;21.82;64.76;100553.34;7365406;19;20014;-63
2023/06/20 00:34:00;;;;;;;4.45;1.00;;;;;;;21.81;64.91;100560.56;7356787;19;20017;-63
2023/06/20 00:36:27;;;;;;;6.05;1.20;;;;;;;21.82;64.62;100553.34;7362801;19;20051;-63
2023/06/20 00:38:55;;;;;;;4.43;0.90;;;;;;;21.79;64.34;100551.94;7363848;19;20022;-63
2023/06/20 00:41:23;;;;;;;4.22;0.70;;;;;;;21.78;64.20;100550.34;7367733;19;20010;-63
2023/06/20 00:43:50;;;;;;;3.80;1.15;;;;;;;21.76;64.84;100563.13;7363275;19;20097;-63
2023/06/20 00:46:23;;;;;;;4.75;0.90;;;;;;;21.77;65.21;100560.22;7364605;19;20642;-63
2023/06/20 00:48:50;;;;;;;;;;;;;;;21.81;64.08;100555.22;7366511;19;20082;-63
2023/06/20 00:51:19;;;;;;;5.20;0.95;;;;;;;21.78;63.93;100542.31;7365152;19;19919;-65
2023/06/20 00:53:47;;;;;;;2.25;0.80;;;;;;;21.78;64.23;100547.66;7365202;19;20234;-63
2023/06/20 00:56:15;;;;;;;3.63;1.20;;;;;;;21.78;64.31;100542.31;7365140;19;20026;-63
2023/06/20 00:58:42;;;;;;;4.20;1.00;;;;;;;21.82;64.27;100537.28;7366159;19;20018;-64
2023/06/20 01:01:09;;;;;;;2.92;1.02;;;;;;;21.83;63.25;100523.66;7366046;19;20110;-63
2023/06/20 01:03:36;;;;;;;4.20;1.05;;;;;;;21.82;63.53;100524.69;7362375;19;20006;-63
2023/06/20 01:06:52;;;;;;;4.60;1.20;;;;;;;21.82;63.84;100507.81;7361994;19;20063;-63
2023/06/20 01:09:28;;;;;;;3.85;1.08;;;;;;;21.83;64.79;100512.13;7361564;19;20056;-62
2023/06/20 01:12:04;;;;;;;3.33;1.10;;;;;;;21.83;63.37;100512.13;7358862;19;20027;-62
2023/06/20 01:14:36;;;;;;;5.40;1.05;;;;;;;21.83;63.18;100520.97;7361049;19;20026;-62
2023/06/20 01:17:09;;;;;;;;;;;;;;;21.83;63.59;100523.66;7365198;19;20018;-62
2023/06/20 01:19:47;;;;;;;3.05;1.00;;;;;;;21.82;63.68;100513.16;7366061;19;19919;-62
2023/06/20 01:22:39;;;;;;;5.75;1.83;;;;;;;21.83;64.78;100504.91;7365957;19;20010;-63
2023/06/20 01:25:11;;;;;;;4.20;1.60;;;;;;;21.83;63.63;100504.09;7367723;19;20028;-63
2023/06/20 01:28:03;;;;;;;5.05;1.60;;;;;;;21.83;64.03;100494.19;7367620;19;20679;-63
2023/06/20 01:30:45;;;;;;;5.35;1.58;;;;;;;21.83;64.24;100496.88;7366259;19;20078;-63
2023/06/20 01:33:17;;;;;;;3.90;1.58;;;;;;;21.80;64.48;100494.63;7365876;19;20105;-63
2023/06/20 01:35:47;;;;;;;5.60;1.70;;;;;;;21.80;65.01;100491.13;7356718;19;20097;-63
2023/06/20 01:38:16;;;;;;;3.85;1.55;;;;;;;21.76;64.87;100494.31;7363022;19;20931;-63
2023/06/20 01:40:49;;;;;;;5.38;1.90;;;;;;;21.77;64.67;100495.13;7363126;19;20015;-62
2023/06/20 01:43:18;;;;;;;6.25;1.70;;;;;;;21.75;65.23;100486.50;7362444;19;20586;-63
2023/06/20 01:45:48;;;;;;;6.20;1.77;;;;;;;21.73;65.70;100485.94;7363513;19;20014;-63
2023/06/20 01:48:18;;;;;;;4.90;1.75;;;;;;;21.70;65.97;100479.16;7358719;19;20550;-63
2023/06/20 01:50:48;;;;;;;4.60;1.88;;;;;;;21.71;65.90;100477.28;7361250;19;20022;-63
2023/06/20 01:53:16;;;;;;;7.20;2.00;;;;;;;21.71;65.67;100477.28;7362335;19;20019;-63
2023/06/20 01:55:45;;;;;;;4.57;1.90;;;;;;;21.71;65.66;100475.44;7356848;19;20362;-62
2023/06/20 01:58:12;;;;;;;7.15;1.42;;;;;;;21.69;65.31;100488.25;7363907;19;20010;-63
2023/06/20 02:00:40;;;;;;;6.10;1.52;;;;;;;21.72;65.52;100476.25;7362052;19;20015;-64
2023/06/20 02:03:10;;;;;;;6.22;1.85;;;;;;;21.73;66.06;100473.34;7361894;19;20082;-63
2023/06/20 02:05:41;;;;;;;5.45;1.48;;;;;;;21.74;65.64;100474.97;7362698;19;20823;-64
2023/06/20 02:08:10;;;;;;;5.50;1.58;;;;;;;21.76;65.16;100475.53;7365799;19;20047;-63
2023/06/20 02:10:37;;;;;;;5.82;1.40;;;;;;;21.77;65.45;100469.16;7364126;19;20491;-63
2023/06/20 02:13:05;;;;;;;6.75;1.58;;;;;;;21.75;65.48;100465.88;7363546;19;20014;-63
2023/06/20 02:15:40;;;;;;;5.60;1.58;;;;;;;21.76;65.08;100472.06;7363347;19;20021;-63
2023/06/20 02:18:08;;;;;;;6.50;1.90;;;;;;;21.77;64.67;100473.69;7362328;19;20029;-63
2023/06/20 02:20:35;;;;;;;6.47;2.30;;;;;;;21.77;64.88;100469.16;7359884;19;20009;-63
2023/06/20 02:23:07;;;;;;;4.32;1.15;;;;;;;21.77;65.32;100469.16;7363676;19;20026;-63
2023/06/20 02:25:44;;;;;;;3.95;1.08;;;;;;;21.77;64.86;100461.13;7362135;19;20029;-64
2023/06/20 02:28:13;;;;;;;5.03;1.55;;;;;;;21.78;65.20;100467.28;7361668;19;20110;-63
2023/06/20 02:30:42;;;;;;;3.38;1.02;;;;;;;21.81;65.21;100464.13;7361628;19;20102;-63
2023/06/20 02:33:12;;;;;;;3.35;1.20;;;;;;;21.81;64.99;100463.31;7361323;19;20705;-62
2023/06/20 02:35:41;;;;;;;3.92;1.17;;;;;;;21.82;65.10;100454.22;7359338;19;20051;-63
2023/06/20 02:38:10;;;;;;;3.83;1.20;;;;;;;21.81;65.38;100452.59;7362806;19;20432;-63
2023/06/20 02:40:37;;;;;;;5.22;1.35;;;;;;;21.82;65.43;100448.88;7361010;19;20082;-63
2023/06/20 02:43:06;;;;;;;6.25;1.98;;;;;;;21.81;65.40;100437.34;7363022;19;20598;-63
2023/06/20 02:45:40;;;;;;;5.72;1.50;;;;;;;21.78;66.20;100429.78;7358257;19;20018;-62
2023/06/20 02:48:42;;;;;;;6.60;1.48;;;;;;;21.76;65.98;100424.66;7356172;19;20027;-63
2023/06/20 02:51:49;;;;;;;6.65;1.25;;;;;;;21.70;66.52;100414.88;7359088;19;20022;-62
2023/06/20 02:54:32;;;;;;;6.07;1.35;;;;;;;21.70;66.80;100416.72;7360987;19;20006;-63
2023/06/20 02:57:03;;;;;;;3.83;1.20;;;;;;;21.68;66.87;100422.34;7360293;19;20093;-64
2023/06/20 02:59:34;;;;;;;6.75;1.25;;;;;;;21.69;67.30;100410.56;7362009;19;20479;-62
2023/06/20 03:02:06;;;;;;;4.50;1.38;;;;;;;21.69;66.87;100405.19;7357994;19;20094;-62
2023/06/20 03:04:34;;;;;;;3.80;1.40;;;;;;;21.71;67.54;100404.97;7359402;19;20356;-63
2023/06/20 03:07:02;;;;;;;5.28;1.35;;;;;;;21.72;67.28;100407.44;7360546;19;20114;-63
2023/06/20 03:09:31;;;;;;;5.05;1.50;;;;;;;21.72;67.61;100401.25;7363495;19;20058;-63
2023/06/20 03:11:58;;;;;;;5.65;1.35;;;;;;;21.71;67.69;100403.13;7360617;19;20086;-64
2023/06/20 03:14:25;;;;;;;3.22;1.65;;;;;;;21.73;67.60;100393.00;7361999;19;20193;-63
2023/06/20 03:16:52;;;;;;;5.60;1.70;;;;;;;21.73;67.02;100387.63;7360116;19;20045;-62
2023/06/20 03:19:20;;;;;;;5.20;1.60;;;;;;;21.71;66.98;100381.69;7358878;19;20024;-64
2023/06/20 03:21:47;;;;;;;5.72;1.50;;;;;;;21.72;67.00;100380.63;7359218;19;20098;-63
2023/06/20 03:24:14;;;;;;;4.97;1.30;;;;;;;21.70;66.65;100390.75;7360288;19;20019;-62
2023/06/20 03:26:41;;;;;;;4.72;1.70;;;;;;;21.68;67.30;100382.16;7360782;19;20058;-62
2023/06/20 03:29:08;;;;;;;3.42;1.75;;;;;;;21.69;66.50;100382.97;7358630;19;20010;-63
2023/06/20 03:31:34;;;;;;;5.43;2.05;;;;;;;21.68;67.14;100366.09;7360259;19;20991;-63
2023/06/20 03:34:02;;;;;;;6.05;2.28;;;;;;;21.69;66.84;100358.84;7359939;19;20015;-62
2023/06/20 03:36:29;;;;;;;10.73;2.35;;;;;;;21.69;67.11;100361.53;7365561;19;20038;-63
2023/06/20 03:38:56;;;;;;;5.75;1.92;;;;;;;21.68;67.51;100360.75;7368171;19;20101;-62
2023/06/20 03:41:23;;;;;;;5.20;2.22;;;;;;;21.67;68.16;100360.97;7365819;19;20530;-63
2023/06/20 03:43:50;;;;;;;6.25;2.42;;;;;;;21.66;68.19;100345.94;7366796;19;20014;-63
2023/06/20 03:46:17;;;;;;;5.60;2.20;;;;;;;21.65;68.31;100350.47;7364677;19;20026;-62
2023/06/20 03:48:44;;;;;;;6.80;2.80;;;;;;;21.68;68.53;100346.53;7365652;19;20021;-62
2023/06/20 03:51:11;;;;;;;6.07;2.45;;;;;;;21.66;68.95;100344.06;7364368;19;20014;-63
2023/06/20 03:53:37;;;;;;;5.53;3.00;;;;;;;21.65;69.30;100337.09;7369469;19;21683;-63
2023/06/20 03:56:05;;;;;;;7.07;3.25;;;;;;;21.64;69.34;100329.28;7368037;19;20018;-63
2023/06/20 03:58:32;;;;;;;5.07;2.70;;;;;;;21.59;69.83;100338.03;7367833;19;20063;-63
2023/06/20 04:00:59;;;;;;;10.30;3.78;;;;;;;21.58;70.01;100335.63;7365462;19;20037;-62
2023/06/20 04:03:26;;;;;;;8.25;3.78;;;;;;;21.58;70.21;100333.75;7366923;19;20488;-63
2023/06/20 04:05:53;;;;;;;8.82;3.75;;;;;;;21.59;70.97;100332.69;7366735;19;20022;-64
2023/06/20 04:08:21;;;;;;;8.82;3.50;;;;;;;21.60;70.75;100320.09;7362623;19;20547;-63
2023/06/20 04:10:48;;;;;;;9.35;3.90;;;;;;;21.62;71.08;100312.66;7364263;19;20980;-62
2023/06/20 04:13:14;;;;;;;6.57;3.90;;;;;;;21.65;71.88;100306.81;7364103;19;20528;-62
2023/06/20 04:15:41;;;;;;;10.00;4.28;;;;;;;21.66;71.61;100313.81;7367274;19;20011;-63
2023/06/20 04:18:08;;;;;;;9.38;4.90;;;;;;;21.65;71.98;100302.28;7363844;19;20025;-62
2023/06/20 04:20:35;;;;;;;9.55;4.90;;;;;;;21.65;71.98;100302.28;7365915;19;20090;-63
2023/06/20 04:23:02;;;;;;;12.55;5.10;;;;;;;21.65;72.10;100298.78;7367951;19;21158;-63
2023/06/20 04:25:29;;;;;;;10.50;5.57;;;;;;;21.66;71.68;100293.19;7367229;19;20098;-66
2023/06/20 04:27:57;;;;;;;14.73;5.30;;;;;;;21.67;72.29;100292.16;7367261;19;20122;-63
2023/06/20 04:30:24;;;;;;;8.70;4.90;;;;;;;21.70;72.30;100290.84;7364865;19;20078;-63
2023/06/20 04:32:53;;;;;;;10.20;4.85;;;;;;;21.72;72.25;100286.88;7363213;19;21231;-63
2023/06/20 04:35:20;;;;;;;11.43;5.13;;;;;;;21.74;72.13;100278.59;7367257;19;20022;-62
2023/06/20 04:37:52;;;;;;;9.95;4.70;;;;;;;21.73;72.65;100272.44;7366515;19;20014;-62
2023/06/20 04:40:19;;;;;;;10.88;5.80;;;;;;;21.74;72.54;100275.91;7368294;19;20030;-62
2023/06/20 04:42:46;;;;;;;10.23;5.50;;;;;;;21.73;72.96;100272.44;7367098;19;20009;-61
2023/06/20 04:45:13;;;;;;;14.25;5.85;;;;;;;21.74;73.99;100279.41;7364527;19;20082;-62
2023/06/20 04:47:42;;;;;;;14.02;6.57;;;;;;;21.74;75.30;100291.97;7363052;19;20017;-62
2023/06/20 04:50:10;;;;;;;12.98;7.07;;;;;;;21.72;76.18;100291.44;7363893;19;20010;-63
2023/06/20 04:52:37;;;;;;;13.52;6.78;;;;;;;21.69;78.18;100283.84;7365562;19;20046;-62
2023/06/20 04:55:04;;;;;;;12.15;7.03;;;;;;;21.64;78.87;100281.88;7365975;19;20604;-63
2023/06/20 04:57:33;;;;;;;14.13;7.28;;;;;;;21.61;80.13;100292.28;7364420;19;20102;-63
2023/06/20 05:00:00;;;;;;;13.10;7.22;;;;;;;21.59;80.25;100289.00;7365822;19;20029;-63
2023/06/20 05:02:27;;;;;;;13.95;7.93;;;;;;;21.53;80.47;100292.66;7364615;19;20836;-63
2023/06/20 05:04:54;;;;;;;15.05;7.63;;;;;;;21.49;81.32;100283.44;7362576;19;20023;-63
2023/06/20 05:07:24;;;;;;;14.32;6.88;;;;;;;21.48;82.31;100281.84;7362090;19;20011;-62
2023/06/20 05:09:52;;;;;;;15.10;7.55;;;;;;;21.45;82.48;100261.69;7365731;19;20014;-62
2023/06/20 05:12:19;;;;;;;14.43;7.25;;;;;;;21.43;82.61;100258.47;7367498;19;20582;-62
2023/06/20 05:14:46;;;;;;;15.00;8.18;;;;;;;21.39;81.66;100251.13;7365954;19;20029;-62
2023/06/20 05:17:13;;;;;;;16.98;8.20;;;;;;;21.36;81.92;100235.56;7362252;19;20122;-62
2023/06/20 05:19:40;;;;;;;16.92;7.60;;;;;;;21.31;81.56;100236.25;7358603;19;20446;-62
2023/06/20 05:22:07;;;;;;;13.65;8.05;;;;;;;21.27;81.94;100246.66;7366143;19;20015;-63
2023/06/20 05:24:34;;;;;;;16.63;8.18;;;;;;;21.31;82.68;100236.25;7364028;19;20027;-63
2023/06/20 05:27:01;;;;;;;13.93;8.07;;;;;;;21.31;82.84;100231.72;7364518;19;20049;-63
2023/06/20 05:29:28;;;;;;;14.57;8.13;;;;;;;21.29;82.35;100230.31;7364735;19;20806;-65
2023/06/20 05:31:55;;;;;;;12.35;7.70;;;;;;;21.31;81.89;100228.22;7365303;19;20020;-64
2023/06/20 05:34:22;;;;;;;13.77;7.75;;;;;;;21.27;82.13;100227.91;7360045;19;20051;-63
2023/06/20 05:36:49;;;;;;;13.48;7.63;;;;;;;21.24;82.51;100224.88;7364277;19;20019;-63
2023/06/20 05:39:16;;;;;;;16.33;7.95;;;;;;;21.24;83.71;100227.53;7364212;19;20879;-64
2023/06/20 05:41:43;;;;;;;21.27;8.60;;;;;;;21.25;84.68;100208.59;7362581;19;20018;-62
2023/06/20 05:44:10;;;;;;;17.40;8.90;;;;;;;21.26;85.52;100220.09;7361596;19;20026;-64
2023/06/20 05:46:37;;;;;;;21.00;8.95;;;;;;;21.22;85.88;100232.34;7362380;19;20023;-62
2023/06/20 05:49:09;;;;;;;17.17;9.10;;;;;;;21.21;87.15;100242.22;7363419;19;20014;-63
2023/06/20 05:51:37;;;;;;;17.70;9.15;;;;;;;21.15;87.33;100234.31;7361151;19;20014;-63
2023/06/20 05:54:04;;;;;;;21.02;9.73;;;;;;;21.09;87.70;100236.06;7362565;19;20021;-63
2023/06/20 05:56:31;;;;;;;18.60;9.98;;;;;;;21.06;88.73;100233.84;7364048;19;20905;-62
2023/06/20 05:58:58;;;;;;;20.70;9.88;;;;;;;21.06;89.70;100247.25;7362070;19;20022;-62
2023/06/20 06:01:25;;;;;;;23.58;10.40;;;;;;;21.03;91.30;100253.03;7363925;19;20129;-62
2023/06/20 06:03:52;;;;;;;24.27;11.00;;;;;;;21.01;92.44;100257.84;7364418;19;20249;-63
2023/06/20 06:06:19;;;;;;;22.65;10.75;;;;;;;20.96;93.14;100254.22;7362572;19;20059;-62
2023/06/20 06:08:46;;;;;;;24.13;11.20;;;;;;;20.89;93.72;100246.31;7362402;19;20006;-64
2023/06/20 06:11:13;;;;;;;27.67;11.52;;;;;;;20.86;94.99;100244.94;7363790;19;20907;-62
2023/06/20 06:13:40;;;;;;;21.60;10.93;;;;;;;20.85;95.40;100242.50;7363204;19;20608;-62
2023/06/20 06:16:07;;;;;;;26.80;12.45;;;;;;;20.81;95.79;100239.47;7360751;19;20558;-63
2023/06/20 06:18:34;;;;;;;21.70;11.20;;;;;;;20.77;96.01;100243.69;7363344;19;20007;-65
2023/06/20 06:21:02;;;;;;;27.63;12.25;;;;;;;20.72;96.19;100254.25;7355294;19;20019;-62
2023/06/20 06:23:29;;;;;;;49.20;14.75;;;;;;;20.70;97.19;100240.31;7363710;19;20014;-62
2023/06/20 06:25:56;;;;;;;29.33;13.65;;;;;;;20.69;98.29;100235.19;7361174;19;20013;-63
2023/06/20 06:28:24;;;;;;;27.50;13.32;;;;;;;20.66;98.89;100231.13;7362966;19;20134;-63
2023/06/20 06:30:51;;;;;;;30.13;14.50;;;;;;;20.64;99.62;100216.34;7360104;19;20090;-63
2023/06/20 06:33:19;;;;;;;37.30;14.63;;;;;;;20.60;99.87;100223.22;7363327;19;21417;-63
2023/06/20 06:35:48;;;;;;;28.70;14.57;;;;;;;20.52;99.40;100202.97;7360522;19;20043;-62
2023/06/20 06:38:17;;;;;;;28.60;14.50;;;;;;;20.52;100.00;100211.00;7363854;19;20075;-62
2023/06/20 06:40:45;;;;;;;37.95;15.77;;;;;;;20.53;100.00;100226.00;7361495;19;20025;-63
2023/06/20 06:43:12;;;;;;;24.75;13.52;;;;;;;20.48;100.00;100234.72;7363328;19;20049;-63
2023/06/20 06:45:55;;;;;;;29.17;14.18;;;;;;;20.45;100.00;100234.38;7359667;19;20026;-63
2023/06/20 06:48:30;;;;;;;29.95;14.32;;;;;;;20.42;100.00;100245.50;7361999;19;20018;-63
2023/06/20 06:50:58;;;;;;;34.30;16.63;;;;;;;20.42;100.00;100251.69;7360922;19;20037;-62
2023/06/20 06:53:28;;;;;;;30.52;15.07;;;;;;;20.40;100.00;100239.59;7362513;19;20108;-63
2023/06/20 06:55:55;;;;;;;31.67;15.27;;;;;;;20.37;100.00;100237.38;7363624;19;20032;-63
2023/06/20 06:58:22;;;;;;;27.25;14.88;;;;;;;20.34;100.00;100227.16;7361617;19;20018;-63
2023/06/20 07:00:50;;;;;;;30.20;16.10;;;;;;;20.34;100.00;100237.84;7361369;19;20086;-64
2023/06/20 07:03:17;;;;;;;31.65;16.00;;;;;;;20.32;100.00;100245.28;7360416;19;20018;-63
2023/06/20 07:05:44;;;;;;;32.42;16.30;;;;;;;20.29;100.00;100243.03;7358065;19;20758;-65
2023/06/20 07:08:11;;;;;;;30.95;16.58;;;;;;;20.28;100.00;100247.56;7361223;19;20021;-63
2023/06/20 07:10:37;;;;;;;32.95;16.40;;;;;;;20.29;100.00;100238.50;7369491;19;20022;-62
2023/06/20 07:13:06;;;;;;;31.02;15.68;;;;;;;20.32;100.00;100210.53;7373770;19;20085;-62
2023/06/20 07:15:47;;;;;;;29.95;15.52;;;;;;;20.35;100.00;100213.56;7375946;19;20014;-63
2023/06/20 07:18:14;;;;;;;27.10;14.77;;;;;;;20.41;100.00;100220.66;7374986;19;20014;-62
2023/06/20 07:20:41;;;;;;;25.88;14.30;;;;;;;20.49;100.00;100224.84;7373562;19;20023;-62
2023/06/20 07:23:08;;;;;;;24.48;14.68;;;;;;;20.56;100.00;100233.56;7371841;19;20039;-63
2023/06/20 07:25:35;;;;;;;28.55;15.52;;;;;;;20.63;100.00;100238.78;7376467;19;20609;-62
2023/06/20 07:28:18;;;;;;;26.80;13.63;;;;;;;20.72;100.00;100229.38;7377494;19;20026;-63
2023/06/20 07:30:45;;;;;;;23.15;14.13;;;;;;;20.79;100.00;100230.06;7375122;19;20024;-63
2023/06/20 07:33:12;;;;;;;22.65;14.25;;;;;;;20.84;100.00;100236.31;7372771;19;20010;-63
2023/06/20 07:35:46;;;;;;;21.88;13.18;;;;;;;20.84;100.00;100232.84;7340371;19;20021;-63
2023/06/20 07:38:18;;;;;;;27.77;14.07;;;;;;;20.87;100.00;100240.41;7369827;19;20022;-63
2023/06/20 07:40:46;;;;;;;26.58;14.50;;;;;;;20.88;100.00;100234.00;7372865;19;20505;-63
2023/06/20 07:43:13;;;;;;;22.70;12.85;;;;;;;20.88;100.00;100240.16;7374639;19;20014;-63
2023/06/20 07:45:51;;;;;;;24.35;14.60;;;;;;;20.93;100.00;100232.25;7371196;19;20023;-62
2023/06/20 07:48:22;;;;;;;25.75;14.07;;;;;;;20.96;100.00;100233.66;7369590;19;20014;-62
2023/06/20 07:50:49;;;;;;;27.75;14.07;;;;;;;21.03;100.00;100239.66;7370084;19;20022;-63
2023/06/20 07:53:18;;;;;;;22.75;12.98;;;;;;;21.13;100.00;100233.75;7373067;19;20047;-63
2023/06/20 07:55:45;;;;;;;24.67;14.43;;;;;;;21.22;100.00;100240.38;7376529;19;20018;-63
2023/06/20 07:58:17;;;;;;;25.80;13.45;;;;;;;21.30;100.00;100239.97;7372112;19;20022;-62
2023/06/20 08:00:47;;;;;;;27.73;15.43;;;;;;;21.48;100.00;100244.38;7374066;19;20963;-62
2023/06/20 08:03:14;;;;;;;22.15;12.45;;;;;;;21.61;100.00;100254.78;7374664;19;20021;-63
2023/06/20 08:05:51;;;;;;;25.85;12.00;;;;;;;21.65;100.00;100232.63;7370274;19;20011;-67
2023/06/20 08:08:18;;;;;;;27.92;12.90;;;;;;;21.67;99.64;100235.09;7370749;19;20546;-63
2023/06/20 08:10:45;;;;;;;20.40;11.55;;;;;;;21.71;99.58;100234.34;7376829;19;20357;-63
2023/06/20 08:13:12;;;;;;;19.98;11.23;;;;;;;21.73;99.27;100239.47;7368930;19;20818;-64
2023/06/20 08:15:45;;;;;;;19.20;11.07;;;;;;;21.76;100.00;100230.94;7370929;19;20030;-63
2023/06/20 08:18:12;;;;;;;18.98;10.77;;;;;;;21.77;100.00;100232.59;7368693;19;20511;-62
2023/06/20 08:20:41;;;;;;;17.85;10.35;;;;;;;21.79;100.00;100238.50;7371974;19;20014;-64
2023/06/20 08:23:08;;;;;;;18.17;9.13;;;;;;;21.79;100.00;100233.13;7361077;19;20015;-62
2023/06/20 08:25:50;;;;;;;14.88;9.23;;;;;;;21.76;100.00;100226.41;7364970;19;20022;-63
2023/06/20 08:28:17;;;;;;;15.98;8.57;;;;;;;21.77;100.00;100221.88;7365710;19;21776;-63
2023/06/20 08:30:45;;;;;;;15.48;9.13;;;;;;;21.76;100.00;100223.72;7343800;19;20113;-63
2023/06/20 08:33:12;;;;;;;16.30;9.23;;;;;;;21.82;100.00;100226.50;7354761;19;20143;-62
2023/06/20 08:35:39;;;;;;;14.40;8.15;;;;;;;21.86;100.00;100219.59;7358573;19;20109;-63
2023/06/20 08:38:07;;;;;;;61.33;13.90;;;;;;;21.88;100.00;100214.81;7363185;19;20779;-63
2023/06/20 08:40:34;;;;;;;9.45;6.47;;;;;;;21.89;100.00;100213.78;7365305;19;20586;-64
2023/06/20 08:43:02;;;;;;;8.65;5.45;;;;;;;21.86;100.00;100212.38;7362021;19;20049;-63
2023/06/20 08:45:29;;;;;;;8.90;4.85;;;;;;;21.86;100.00;100209.69;7362733;19;20026;-62
2023/06/20 08:47:59;;;;;;;7.47;4.65;;;;;;;21.87;100.00;100205.16;7359549;19;20189;-62
2023/06/20 08:50:26;;;;;;;9.05;5.93;;;;;;;21.90;100.00;100210.03;7359664;19;20041;-62
2023/06/20 08:52:59;;;;;;;12.35;5.40;;;;;;;21.92;100.00;100213.28;7365839;19;20007;-62
2023/06/20 08:55:33;;;;;;;9.02;5.45;;;;;;;21.92;100.00;100205.25;7360618;19;20019;-62
2023/06/20 08:58:11;;;;;;;8.43;5.38;;;;;;;21.89;100.00;100205.75;7362219;19;20018;-63
2023/06/20 09:00:41;;;;;;;8.18;5.03;;;;;;;21.87;100.00;100199.81;7366329;19;20358;-64
2023/06/20 09:03:08;;;;;;;8.20;6.03;;;;;;;21.89;100.00;100203.84;7359980;19;20127;-64
2023/06/20 09:05:45;;;;;;;8.15;6.28;;;;;;;21.86;100.00;100211.56;7361640;19;20018;-62
2023/06/20 09:08:14;;;;;;;18.10;6.78;;;;;;;21.85;100.00;100207.25;7355708;19;20019;-62
2023/06/20 09:10:44;;;;;;;13.10;9.25;;;;;;;21.83;100.00;100207.50;7356799;19;20022;-64
2023/06/20 09:13:13;;;;;;;18.17;14.05;;;;;;;21.83;100.00;100202.16;7362185;19;20018;-62
2023/06/20 09:15:41;;;;;;;9.65;7.53;;;;;;;21.84;100.00;100211.78;7359570;19;20022;-62
2023/06/20 09:18:12;;;;;;;9.55;7.20;;;;;;;21.87;100.00;100199.81;7365062;19;20010;-61
2023/06/20 09:20:40;;;;;;;11.38;7.50;;;;;;;21.89;100.00;100206.53;7367008;19;20543;-62
2023/06/20 09:23:07;;;;;;;28.90;10.15;;;;;;;21.89;100.00;100201.16;7371080;19;20029;-62
2023/06/20 09:25:47;;;;;;;11.48;7.32;;;;;;;21.90;100.00;100197.44;7366864;19;20029;-62
2023/06/20 09:28:17;;;;;;;10.50;8.07;;;;;;;21.86;100.00;100209.69;7366721;19;20021;-62
2023/06/20 09:30:47;;;;;;;11.40;7.03;;;;;;;21.85;100.00;100213.44;7363949;19;20588;-62
2023/06/20 09:33:16;;;;;;;13.68;7.38;;;;;;;21.83;100.00;100212.88;7365956;19;20044;-62
2023/06/20 09:35:43;;;;;;;10.50;7.60;;;;;;;21.86;100.00;100207.03;7365173;19;20022;-63
2023/06/20 09:38:10;;;;;;;12.18;8.13;;;;;;;21.83;100.00;100212.88;7367422;19;20018;-63
2023/06/20 09:40:44;;;;;;;10.57;8.02;;;;;;;21.82;100.00;100207.75;7367526;19;20026;-61
2023/06/20 09:43:12;;;;;;;14.18;7.50;;;;;;;21.83;100.00;100212.06;7365746;19;20019;-62
2023/06/20 09:45:45;;;;;;;12.60;8.10;;;;;;;21.84;100.00;100216.38;7361830;19;20013;-63
2023/06/20 09:48:14;;;;;;;10.15;7.93;;;;;;;21.86;100.00;100204.34;7364011;19;20018;-63
2023/06/20 09:50:43;;;;;;;12.73;8.13;;;;;;;21.86;100.00;100201.66;7362726;19;20014;-62
2023/06/20 09:53:25;;;;;;;12.15;8.75;;;;;;;21.88;100.00;100199.56;7368993;19;20169;-62
2023/06/20 09:55:55;;;;;;;12.43;7.95;;;;;;;21.92;100.00;100199.88;7367854;19;20015;-62
2023/06/20 09:58:25;;;;;;;12.77;7.35;;;;;;;21.95;100.00;100200.22;7363390;19;20082;-61
2023/06/20 10:00:54;;;;;;;12.27;8.93;;;;;;;21.94;100.00;100201.28;7364632;19;20130;-63
2023/06/20 10:03:22;;;;;;;14.23;8.80;;;;;;;21.94;99.48;100197.81;7364860;19;20010;-62
2023/06/20 10:05:51;;;;;;;13.70;8.40;;;;;;;22.02;100.00;100194.72;7364580;19;20014;-62
2023/06/20 10:08:19;;;;;;;13.73;8.50;;;;;;;22.05;100.00;100194.22;7365587;19;20094;-62
2023/06/20 10:10:46;;;;;;;17.02;8.88;;;;;;;22.12;100.00;100190.34;7365339;19;20018;-62
2023/06/20 10:13:14;;;;;;;14.60;8.63;;;;;;;22.16;100.00;100182.63;7364610;19;20603;-62
2023/06/20 10:15:50;;;;;;;14.70;9.18;;;;;;;22.18;100.00;100185.88;7363534;19;20051;-62
2023/06/20 10:18:36;;;;;;;11.15;8.02;;;;;;;22.26;100.00;100187.31;7364941;19;20043;-63
2023/06/20 10:21:11;;;;;;;15.40;9.20;;;;;;;22.27;99.96;100186.25;7360834;19;20656;-62
2023/06/20 10:23:39;;;;;;;13.68;8.43;;;;;;;22.27;99.89;100187.06;7362101;19;20740;-62
2023/06/20 10:26:08;;;;;;;11.73;8.27;;;;;;;22.29;99.74;100178.78;7317485;19;20010;-64
2023/06/20 10:28:39;;;;;;;12.27;8.02;;;;;;;22.34;99.63;100178.88;7355795;19;20021;-62
2023/06/20 10:31:07;;;;;;;12.98;8.60;;;;;;;22.36;99.52;100184.78;7361830;19;20746;-63
2023/06/20 10:33:36;;;;;;;11.35;7.35;;;;;;;22.35;99.35;100183.19;7356601;19;20475;-62
2023/06/20 10:36:04;;;;;;;10.70;7.07;;;;;;;22.39;98.65;100184.31;7357676;19;20105;-62
2023/06/20 10:38:33;;;;;;;8.25;6.30;;;;;;;22.36;97.23;100179.41;7361797;19;20021;-62
2023/06/20 10:41:23;;;;;;;8.68;6.05;;;;;;;22.38;96.54;100190.72;7349596;19;20014;-63
2023/06/20 10:43:53;;;;;;;9.00;6.05;;;;;;;22.42;96.89;100189.16;7357619;19;20125;-62
2023/06/20 10:46:41;;;;;;;10.80;6.53;;;;;;;22.46;97.13;100184.94;7356080;19;20052;-62
2023/06/20 10:49:10;;;;;;;10.38;5.70;;;;;;;22.51;96.51;100185.81;7357405;19;20109;-62
2023/06/20 10:51:51;;;;;;;8.30;4.97;;;;;;;22.52;95.27;100187.44;7356814;19;20010;-62
2023/06/20 10:54:18;;;;;;;6.00;2.90;;;;;;;22.51;92.95;100196.53;7358036;19;20109;-62
2023/06/20 10:56:48;;;;;;;8.30;4.28;;;;;;;22.57;91.88;100192.06;7356213;19;20014;-62
2023/06/20 10:59:17;;;;;;;7.78;3.92;;;;;;;22.67;93.06;100191.41;7357468;19;21801;-62
2023/06/20 11:01:45;;;;;;;6.60;2.35;;;;;;;22.73;91.24;100185.88;7359096;19;20015;-62
2023/06/20 11:04:14;;;;;;;7.85;2.75;;;;;;;22.79;89.38;100187.59;7359384;19;20010;-62
2023/06/20 11:06:42;;;;;;;7.80;2.20;;;;;;;22.85;88.52;100181.22;7360330;19;20909;-62
2023/06/20 11:09:20;;;;;;;6.40;2.67;;;;;;;22.94;88.92;100184.28;7358498;19;20014;-63
2023/06/20 11:11:47;;;;;;;6.72;2.40;;;;;;;22.97;88.68;100187.25;7359303;19;20022;-62
2023/06/20 11:14:18;;;;;;;8.90;2.80;;;;;;;23.03;88.74;100193.50;7361236;19;20022;-62
2023/06/20 11:16:47;;;;;;;4.53;2.25;;;;;;;23.06;87.72;100193.00;7361050;19;20003;-62
2023/06/20 11:19:23;;;;;;;4.43;1.88;;;;;;;23.10;85.83;100194.16;7358356;19;20033;-62
2023/06/20 11:21:54;;;;;;;3.97;1.27;;;;;;;23.15;83.29;100196.88;7359165;19;20021;-63
2023/06/20 11:24:21;;;;;;;3.95;1.38;;;;;;;23.25;85.25;100199.69;7362925;19;20086;-62
2023/06/20 11:26:48;;;;;;;6.93;1.88;;;;;;;23.30;85.40;100201.63;7360457;19;20026;-62
2023/06/20 11:29:18;;;;;;;3.45;1.92;;;;;;;23.32;85.25;100216.41;7327342;19;20028;-62